createdAt,value
2023-05-13T00:01:05.718Z,72.78
2023-05-13T00:05:57.906Z,70.03
2023-05-13T00:08:24.745Z,97.93
2023-05-13T00:10:51.716Z,78.90
2023-05-13T00:13:18.407Z,70.43
2023-05-13T00:15:45.051Z,91.25
2023-05-13T00:18:12.406Z,54.95
2023-05-13T00:20:39.106Z,73.60
2023-05-13T00:23:05.765Z,92.15
2023-05-13T00:27:57.838Z,55.10
2023-05-13T00:30:24.576Z,45.35
2023-05-13T00:37:43.184Z,77.20
2023-05-13T00:40:19.647Z,40.78
2023-05-13T00:42:46.787Z,73.60
2023-05-13T00:45:13.509Z,85.70
2023-05-13T00:47:41.191Z,79.53
2023-05-13T00:50:09.644Z,71.63
2023-05-13T00:52:40.045Z,57.45
2023-05-13T00:55:08.407Z,71.78
2023-05-13T00:57:35.665Z,47.97
2023-05-13T01:00:02.835Z,86.30
2023-05-13T01:02:34.856Z,76.60
2023-05-13T01:05:14.161Z,74.18
2023-05-13T01:07:56.214Z,89.28
2023-05-13T01:10:28.827Z,66.88
2023-05-13T01:17:53.157Z,89.13
2023-05-13T01:20:21.822Z,77.93
2023-05-13T01:22:48.918Z,87.03
2023-05-13T01:25:16.317Z,58.78
2023-05-13T01:27:43.176Z,71.63
2023-05-13T01:30:11.834Z,89.60
2023-05-13T01:32:38.716Z,82.93
2023-05-13T01:35:06.385Z,81.72
2023-05-13T01:37:36.550Z,89.03
2023-05-13T01:40:09.594Z,65.20
2023-05-13T01:54:49.094Z,73.70
2023-05-13T01:59:41.739Z,71.82
2023-05-13T02:02:08.511Z,61.80
2023-05-13T02:04:35.290Z,68.97
2023-05-13T02:07:01.950Z,71.97
2023-05-13T02:17:24.880Z,60.97
2023-05-13T02:22:18.099Z,79.57
2023-05-13T02:24:44.770Z,66.30
2023-05-13T02:29:38.844Z,58.47
2023-05-13T02:32:05.873Z,66.25
2023-05-13T02:34:32.702Z,71.03
2023-05-13T02:39:25.007Z,77.50
2023-05-13T02:41:53.289Z,68.80
2023-05-13T02:46:45.716Z,68.38
2023-05-13T02:49:12.970Z,59.20
2023-05-13T02:54:05.201Z,41.67
2023-05-13T02:56:31.912Z,69.30
2023-05-13T03:06:17.458Z,75.20
2023-05-13T03:08:44.258Z,74.40
2023-05-13T03:11:11.395Z,63.42
2023-05-13T03:13:39.078Z,83.57
2023-05-13T03:16:05.864Z,81.57
2023-05-13T03:18:32.983Z,81.13
2023-05-13T03:28:16.593Z,43.70
2023-05-13T03:30:44.366Z,64.78
2023-05-13T03:33:16.133Z,71.97
2023-05-13T03:35:42.856Z,66.40
2023-05-13T03:38:09.795Z,69.20
2023-05-13T03:40:36.441Z,64.15
2023-05-13T03:43:03.374Z,58.75
2023-05-13T03:45:31.376Z,68.93
2023-05-13T03:50:29.254Z,72.72
2023-05-13T03:52:56.602Z,59.83
2023-05-13T03:55:23.566Z,59.60
2023-05-13T03:57:50.357Z,74.68
2023-05-13T04:00:19.496Z,75.22
2023-05-13T04:02:46.439Z,63.45
2023-05-13T04:05:14.273Z,68.13
2023-05-13T04:07:41.529Z,80.47
2023-05-13T04:10:08.471Z,72.20
2023-05-13T04:12:35.213Z,77.20
2023-05-13T04:15:01.939Z,86.28
2023-05-13T04:17:29.076Z,90.88
2023-05-13T04:19:56.079Z,77.07
2023-05-13T04:22:24.492Z,73.63
2023-05-13T04:27:22.683Z,89.53
2023-05-13T04:29:51.554Z,79.60
2023-05-13T04:34:48.405Z,83.40
2023-05-13T04:37:16.307Z,70.85
2023-05-13T04:42:10.843Z,64.68
2023-05-13T04:44:37.872Z,67.25
2023-05-13T04:49:30.048Z,70.63
2023-05-13T04:51:57.704Z,71.70
2023-05-13T04:54:24.904Z,70.35
2023-05-13T04:56:51.736Z,67.68
2023-05-13T04:59:18.519Z,66.38
2023-05-13T05:01:46.066Z,56.88
2023-05-13T05:04:13.469Z,78.40
2023-05-13T05:06:40.972Z,66.80
2023-05-13T05:09:07.749Z,68.80
2023-05-13T05:11:35.120Z,66.05
2023-05-13T05:14:01.789Z,77.63
2023-05-13T05:16:28.521Z,69.20
2023-05-13T05:18:57.277Z,61.78
2023-05-13T05:21:24.015Z,57.17
2023-05-13T05:23:50.909Z,72.47
2023-05-13T05:26:18.755Z,60.92
2023-05-13T05:28:45.580Z,64.32
2023-05-13T05:33:38.101Z,60.50
2023-05-13T05:36:06.121Z,68.80
2023-05-13T05:38:34.339Z,50.63
2023-05-13T05:41:01.049Z,53.30
2023-05-13T05:43:28.163Z,70.75
2023-05-13T05:45:55.444Z,73.40
2023-05-13T05:58:06.546Z,56.53
2023-05-13T06:00:36.428Z,64.13
2023-05-13T06:03:03.276Z,63.65
2023-05-13T06:05:30.169Z,54.00
2023-05-13T06:07:56.843Z,62.63
2023-05-13T06:12:48.989Z,74.40
2023-05-13T06:15:16.036Z,54.85
2023-05-13T06:17:44.682Z,58.85
2023-05-13T06:20:11.778Z,64.72
2023-05-13T06:22:38.541Z,56.38
2023-05-13T06:25:05.535Z,59.20
2023-05-13T06:27:34.170Z,46.55
2023-05-13T06:30:01.429Z,49.33
2023-05-13T06:32:28.221Z,58.90
2023-05-13T06:34:56.050Z,58.83
2023-05-13T06:37:23.619Z,53.05
2023-05-13T06:39:50.506Z,52.20
2023-05-13T06:44:46.133Z,60.58
2023-05-13T06:47:16.157Z,39.78
2023-05-13T06:52:11.680Z,56.75
2023-05-13T06:54:38.422Z,52.67
2023-05-13T06:57:05.941Z,68.55
2023-05-13T06:59:32.759Z,52.60
2023-05-13T07:01:59.385Z,54.15
2023-05-13T07:04:26.142Z,54.75
2023-05-13T07:06:54.747Z,35.17
2023-05-13T07:09:21.521Z,52.00
2023-05-13T07:11:48.243Z,39.72
2023-05-13T07:14:14.924Z,48.90
2023-05-13T07:16:41.587Z,51.47
2023-05-13T07:21:33.904Z,54.00
2023-05-13T07:24:02.294Z,51.05
2023-05-13T07:26:28.985Z,49.22
2023-05-13T07:28:56.489Z,59.88
2023-05-13T07:31:23.299Z,55.33
2023-05-13T07:33:49.989Z,56.92
2023-05-13T07:36:16.707Z,45.08
2023-05-13T07:38:44.310Z,33.05
2023-05-13T07:41:10.987Z,51.15
2023-05-13T07:43:39.534Z,59.88
2023-05-13T07:46:06.361Z,53.40
2023-05-13T07:48:33.431Z,56.10
2023-05-13T07:51:00.044Z,53.67
2023-05-13T07:53:26.789Z,53.45
2023-05-13T07:55:53.407Z,53.85
2023-05-13T07:58:20.374Z,47.58
2023-05-13T08:00:47.103Z,54.95
2023-05-13T08:03:13.869Z,56.75
2023-05-13T08:05:40.639Z,46.15
2023-05-13T08:08:07.268Z,50.42
2023-05-13T08:13:01.078Z,56.17
2023-05-13T08:15:28.656Z,64.00
2023-05-13T08:20:23.144Z,47.78
2023-05-13T08:22:52.197Z,52.58
2023-05-13T08:27:44.761Z,60.17
2023-05-13T08:30:11.637Z,59.05
2023-05-13T08:32:38.374Z,52.30
2023-05-13T08:35:05.369Z,58.10
2023-05-13T08:37:32.039Z,57.83
2023-05-13T08:42:28.925Z,57.88
2023-05-13T08:44:55.751Z,52.90
2023-05-13T08:47:41.544Z,54.17
2023-05-13T08:50:08.536Z,50.53
2023-05-13T08:52:35.151Z,54.05
2023-05-13T08:55:02.075Z,54.67
2023-05-13T08:57:28.757Z,48.42
2023-05-13T08:59:55.663Z,58.35
2023-05-13T09:04:52.031Z,42.08
2023-05-13T09:07:18.769Z,53.25
2023-05-13T09:12:11.094Z,57.72
2023-05-13T09:14:38.666Z,55.90
2023-05-13T09:17:05.619Z,49.72
2023-05-13T09:19:32.561Z,62.28
2023-05-13T09:21:59.481Z,47.28
2023-05-13T09:24:26.512Z,41.67
2023-05-13T09:26:53.290Z,52.92
2023-05-13T09:29:19.965Z,45.72
2023-05-13T09:36:41.553Z,43.85
2023-05-13T09:41:34.341Z,46.65
2023-05-13T09:44:06.997Z,52.58
2023-05-13T09:51:30.762Z,56.05
2023-05-13T10:13:50.203Z,34.85
2023-05-13T10:16:18.591Z,23.50
2023-05-13T10:18:45.819Z,40.78
2023-05-13T10:21:13.083Z,49.33
2023-05-13T10:23:40.054Z,41.42
2023-05-13T10:26:06.731Z,48.00
2023-05-13T10:28:34.252Z,43.33
2023-05-13T10:31:00.924Z,49.03
2023-05-13T10:33:28.037Z,41.97
2023-05-13T10:36:02.070Z,49.72
2023-05-13T10:38:37.212Z,49.15
2023-05-13T10:41:10.472Z,48.67
2023-05-13T10:43:37.567Z,44.63
2023-05-13T10:46:08.552Z,42.05
2023-05-13T10:51:26.843Z,47.83
2023-05-13T10:53:54.516Z,42.85
2023-05-13T10:59:20.543Z,37.25
2023-05-13T11:01:49.000Z,53.28
2023-05-13T11:04:17.027Z,49.30
2023-05-13T11:06:46.382Z,42.78
2023-05-13T11:09:22.072Z,52.20
2023-05-13T11:11:52.702Z,44.97
2023-05-13T11:19:21.642Z,40.92
2023-05-13T11:21:51.136Z,47.10
2023-05-13T11:24:19.067Z,35.25
2023-05-13T11:26:46.844Z,29.48
2023-05-13T11:29:13.656Z,49.15
2023-05-13T11:31:43.561Z,38.85
2023-05-13T11:34:10.476Z,48.00
2023-05-13T11:41:37.725Z,42.67
2023-05-13T11:44:06.084Z,38.33
2023-05-13T11:51:25.325Z,40.15
2023-05-13T11:53:53.323Z,47.35
2023-05-13T11:56:20.036Z,27.15
2023-05-13T11:58:46.881Z,51.10
2023-05-13T12:09:12.248Z,23.42
2023-05-13T12:11:39.377Z,48.25
2023-05-13T12:14:06.155Z,41.50
2023-05-13T12:16:33.047Z,33.00
2023-05-13T12:19:00.552Z,34.88
2023-05-13T12:21:31.077Z,38.35
2023-05-13T12:23:58.808Z,41.63
2023-05-13T12:26:26.069Z,51.15
2023-05-13T12:29:00.167Z,29.77
2023-05-13T12:31:27.515Z,32.10
2023-05-13T12:33:54.594Z,37.10
2023-05-13T12:56:44.264Z,23.83
2023-05-13T12:59:10.986Z,25.20
2023-05-13T13:02:14.798Z,27.15
2023-05-13T13:04:41.654Z,30.30
2023-05-13T13:07:12.785Z,25.02
2023-05-13T13:09:39.565Z,31.63
2023-05-13T13:21:51.550Z,25.98
2023-05-13T13:24:19.009Z,36.80
2023-05-13T13:26:45.826Z,35.38
2023-05-13T13:31:38.408Z,35.65
2023-05-13T13:34:13.818Z,30.75
2023-05-13T13:43:57.232Z,23.25
2023-05-13T13:46:24.048Z,29.48
2023-05-13T13:48:50.751Z,24.02
2023-05-13T13:51:17.558Z,32.10
2023-05-13T13:53:45.436Z,29.00
2023-05-13T13:56:12.063Z,21.75
2023-05-13T13:58:38.786Z,27.17
2023-05-13T14:01:05.511Z,25.63
2023-05-13T14:03:32.299Z,16.83
2023-05-13T14:10:51.314Z,35.13
2023-05-13T14:13:17.965Z,21.90
2023-05-13T14:15:44.597Z,22.85
2023-05-13T14:20:36.769Z,25.73
2023-05-13T14:23:05.270Z,28.98
2023-05-13T14:25:32.181Z,32.70
2023-05-13T14:27:58.782Z,31.98
2023-05-13T14:30:27.831Z,25.05
2023-05-13T14:32:54.608Z,24.65
2023-05-13T14:42:38.120Z,24.10
2023-05-13T14:45:05.163Z,25.30
2023-05-13T14:47:31.878Z,20.10
2023-05-13T14:49:58.773Z,26.58
2023-05-13T14:52:25.384Z,21.63
2023-05-13T14:54:52.148Z,19.30
2023-05-13T14:59:44.652Z,31.63
2023-05-13T15:02:13.895Z,21.25
2023-05-13T15:04:40.761Z,19.15
2023-05-13T15:07:07.493Z,22.55
2023-05-13T15:09:34.351Z,21.60
2023-05-13T15:12:02.353Z,25.40
2023-05-13T15:14:33.340Z,19.05
2023-05-13T15:17:03.204Z,19.67
2023-05-13T15:19:30.876Z,23.75
2023-05-13T15:22:00.001Z,21.70
2023-05-13T15:34:16.959Z,24.73
2023-05-13T15:36:43.852Z,23.52
2023-05-13T15:44:02.646Z,25.08
2023-05-13T15:46:29.727Z,24.23
2023-05-13T15:48:56.614Z,26.40
2023-05-13T15:51:23.417Z,24.33
2023-05-13T15:53:50.757Z,23.67
2023-05-13T15:56:17.558Z,26.95
2023-05-13T15:58:44.344Z,24.90
2023-05-13T16:08:58.018Z,29.77
2023-05-13T16:11:24.822Z,20.55
2023-05-13T16:13:52.742Z,21.58
2023-05-13T16:16:20.750Z,27.75
2023-05-13T16:18:47.731Z,24.02
2023-05-13T16:21:14.618Z,20.75
2023-05-13T16:26:08.519Z,28.83
2023-05-13T16:28:35.897Z,25.27
2023-05-13T16:33:30.374Z,18.10
2023-05-13T16:35:57.060Z,23.48
2023-05-13T16:43:16.686Z,25.55
2023-05-13T16:45:43.975Z,14.40
2023-05-13T16:48:10.861Z,25.30
2023-05-13T16:50:37.603Z,22.38
2023-05-13T16:53:04.239Z,26.15
2023-05-13T16:55:31.981Z,21.60
2023-05-13T16:57:59.332Z,21.27
2023-05-13T17:00:26.288Z,19.77
2023-05-13T17:07:44.160Z,25.38
2023-05-13T17:15:36.165Z,37.17
2023-05-13T17:18:02.978Z,26.08
2023-05-13T17:20:29.610Z,31.10
2023-05-13T17:22:56.259Z,20.90
2023-05-13T17:25:22.908Z,22.48
2023-05-13T17:27:49.528Z,24.63
2023-05-13T17:32:42.004Z,30.35
2023-05-13T17:35:08.950Z,31.67
2023-05-13T17:40:38.473Z,28.90
2023-05-13T17:43:05.149Z,35.45
2023-05-13T17:45:32.382Z,28.58
2023-05-13T17:47:59.208Z,28.67
2023-05-13T17:50:26.070Z,30.10
2023-05-13T17:52:52.740Z,29.02
2023-05-13T17:57:44.865Z,33.40
2023-05-13T18:00:12.173Z,35.28
2023-05-13T18:05:06.544Z,27.13
2023-05-13T18:07:33.564Z,40.35
2023-05-13T18:12:26.111Z,33.25
2023-05-13T18:14:52.857Z,29.02
2023-05-13T18:22:11.182Z,33.70
2023-05-13T18:24:38.595Z,33.33
2023-05-13T18:27:06.644Z,36.15
2023-05-13T18:29:33.517Z,31.15
2023-05-13T18:32:00.306Z,35.95
2023-05-13T18:34:27.088Z,32.70
2023-05-13T18:36:54.135Z,28.10
2023-05-13T18:39:21.809Z,36.95
2023-05-13T18:41:48.569Z,35.15
2023-05-13T18:44:15.556Z,33.03
2023-05-13T18:46:44.476Z,32.72
2023-05-13T18:49:11.599Z,32.05
2023-05-13T18:51:38.288Z,42.92
2023-05-13T18:58:57.197Z,39.10
2023-05-13T19:01:24.436Z,39.10
2023-05-13T19:03:51.644Z,33.47
2023-05-13T19:06:18.379Z,34.00
2023-05-13T19:08:45.080Z,38.30
2023-05-13T19:11:11.719Z,42.63
2023-05-13T19:13:46.820Z,37.83
2023-05-13T19:16:14.808Z,34.25
2023-05-13T19:18:41.624Z,43.22
2023-05-13T19:21:08.385Z,36.97
2023-05-13T19:23:35.080Z,34.40
2023-05-13T19:26:01.700Z,45.05
2023-05-13T19:28:28.850Z,36.85
2023-05-13T19:30:55.728Z,36.05
2023-05-13T19:35:47.856Z,35.92
2023-05-13T19:38:14.602Z,37.17
2023-05-13T19:43:06.727Z,41.00
2023-05-13T19:45:34.351Z,36.03
2023-05-13T19:48:01.066Z,37.92
2023-05-13T19:52:53.221Z,35.08
2023-05-13T19:55:20.437Z,36.17
2023-05-13T19:57:47.859Z,33.80
2023-05-13T20:00:15.278Z,41.00
2023-05-13T20:02:42.162Z,45.70
2023-05-13T20:07:34.634Z,38.97
2023-05-13T20:10:01.277Z,39.25
2023-05-13T20:12:28.006Z,43.60
2023-05-13T20:14:58.764Z,46.00
2023-05-13T20:17:26.020Z,44.95
2023-05-13T20:22:20.111Z,47.95
2023-05-13T20:24:49.886Z,47.70
2023-05-13T20:27:17.583Z,49.90
2023-05-13T20:29:45.552Z,47.15
2023-05-13T20:32:12.520Z,54.33
2023-05-13T20:34:39.416Z,42.28
2023-05-13T20:37:06.202Z,59.75
2023-05-13T20:39:33.011Z,55.90
2023-05-13T20:41:59.697Z,60.03
2023-05-13T20:44:26.725Z,58.55
2023-05-13T20:46:53.316Z,58.33
2023-05-13T20:49:20.036Z,61.30
2023-05-13T20:51:47.755Z,66.13
2023-05-13T20:54:14.860Z,68.00
2023-05-13T20:56:41.821Z,69.60
2023-05-13T20:59:08.636Z,74.78
2023-05-13T21:01:35.479Z,77.65
2023-05-13T21:04:04.144Z,72.18
2023-05-13T21:06:30.911Z,66.90
2023-05-13T21:08:57.549Z,80.65
2023-05-13T21:26:09.257Z,86.88
2023-05-13T21:28:35.995Z,87.82
2023-05-13T21:31:02.839Z,93.95
2023-05-13T21:33:29.636Z,101.75
2023-05-13T21:35:56.854Z,99.57
2023-05-13T21:38:23.495Z,102.43
2023-05-13T21:45:41.346Z,108.00
2023-05-13T21:48:08.114Z,105.90
2023-05-13T21:50:35.200Z,105.25
2023-05-13T21:53:01.932Z,100.60
2023-05-13T22:02:47.882Z,111.15
2023-05-13T22:05:14.705Z,122.15
2023-05-13T22:07:41.404Z,119.85
2023-05-13T22:10:08.415Z,125.60
2023-05-13T22:12:35.093Z,141.73
2023-05-13T22:15:01.746Z,134.57
2023-05-13T22:17:29.273Z,130.23
2023-05-13T22:19:56.048Z,131.82
2023-05-13T22:22:22.718Z,136.95
2023-05-13T22:27:14.942Z,142.93
2023-05-13T22:29:41.636Z,139.90
2023-05-13T22:32:08.445Z,120.70
2023-05-13T22:34:35.480Z,125.53
2023-05-13T22:37:02.274Z,124.15
2023-05-13T22:39:28.979Z,129.27
2023-05-13T22:41:55.819Z,133.80
2023-05-13T22:44:25.161Z,131.07
2023-05-13T22:49:18.227Z,138.13
2023-05-13T22:51:45.135Z,136.30
2023-05-13T22:54:11.820Z,139.93
2023-05-13T22:56:38.563Z,143.38
2023-05-13T22:59:05.239Z,150.13
2023-05-13T23:03:57.354Z,145.05
2023-05-13T23:06:24.270Z,142.45
2023-05-13T23:08:51.305Z,136.88
2023-05-13T23:11:17.941Z,119.82
2023-05-13T23:13:44.577Z,117.10
2023-05-13T23:18:36.650Z,118.75
2023-05-13T23:21:03.414Z,115.05
2023-05-13T23:28:58.552Z,110.07
2023-05-13T23:31:25.390Z,105.38
2023-05-13T23:33:52.077Z,122.97
2023-05-13T23:36:18.748Z,109.25
2023-05-13T23:38:45.349Z,111.35
2023-05-13T23:41:11.957Z,117.90
2023-05-13T23:43:38.607Z,112.65
2023-05-13T23:46:05.657Z,115.35
2023-05-13T23:48:32.381Z,112.80
2023-05-13T23:50:58.994Z,112.20
2023-05-13T23:53:25.674Z,104.95
